Ellensburg, WA (98926)

9:40 PM PDT on July 30, 2016 (GMT -0700)
Ellensburg WA | | Change Station

Elev 1541 ft 47.00 °N, 120.55 °W | Updated 10 minutes ago

Clear
Clear
68.5 °F
Feels Like 68.5 °F
N
16.0
Wind Variable Wind from WNW
Gusts 29.0 mph

Today
High -- | Low -- °F
--% Chance of Precip.
Yesterday
High -- | Low -- °F
Precip. -- in
Pressure 29.78 in
Visibility 10.0 miles
Clouds Clear
Dew Point 49 °F
Humidity 50%
Rainfall 0.00 in
Snow Depth Not available.
5:39 AM 8:36 PM
Waning Crescent, 9% visible
METAR KELN 310353Z AUTO 32019G26KT 10SM CLR 20/09 A2982 RMK AO2 PK WND 31027/0254 SLP085 T02000094
Pressure 29.78 in
Visibility 10.0 miles
Clouds Clear
Dew Point 49 °F
Humidity 50%
Rainfall 0.00 in
Snow Depth Not available.
5:39 AM 8:36 PM
Waning Crescent, 9% visible
METAR KELN 310353Z AUTO 32019G26KT 10SM CLR 20/09 A2982 RMK AO2 PK WND 31027/0254 SLP085 T02000094

10-Day Weather Forecast

Almanac

Astronomy

Jul. 30, 2016 Rise Set
Actual Time
Civil Twilight
Nautical Twilight
Astronomical Twilight
Moon
Length of Visible Light
Length of Day
Tomorrow will be .
, % of the Moon is Illuminated

Today's Extremes

State Highs State Lows

Community

WunderPhotos

Upload Photos

1,928,759 photos uploaded!

WunderBlog® & News

Nearby

Air Quality

  Air Quality AQ Index Pollutant
Not available.

Snow Depth

Station Depth Elevation

Earthquake Activity

City Distance Mag. Time & Date
Minimum magnitude displayed is 2.5.

Coastal Water Temperatures

Place Temperature

Stations

Nearby Weather Stations

Station Location Temp. Windchill Dew Point Humidity Wind Precip. Elev Updated Type
                   

Watches & Warnings

There are currently no watches in effect.